createdAt,value
2022-09-24T00:00:04.108Z,6.20
2022-09-24T00:02:55.176Z,7.00
2022-09-24T00:05:23.608Z,6.40
2022-09-24T00:07:52.091Z,7.40
2022-09-24T00:10:20.684Z,6.70
2022-09-24T00:12:49.166Z,6.90
2022-09-24T00:15:17.749Z,6.90
2022-09-24T00:17:47.462Z,7.20
2022-09-24T00:20:15.940Z,6.20
2022-09-24T00:22:45.857Z,6.10
2022-09-24T00:25:32.682Z,5.90
2022-09-24T00:28:01.385Z,5.80
2022-09-24T00:30:29.845Z,5.90
2022-09-24T00:32:58.337Z,6.50
2022-09-24T00:35:26.719Z,7.10
2022-09-24T00:37:57.568Z,7.70
2022-09-24T00:40:32.459Z,6.20
2022-09-24T00:43:01.186Z,7.50
2022-09-24T00:45:31.301Z,6.50
2022-09-24T00:48:01.306Z,7.00
2022-09-24T00:50:35.347Z,6.80
2022-09-24T00:53:29.322Z,5.80
2022-09-24T00:55:58.725Z,5.80
2022-09-24T00:58:31.712Z,5.20
2022-09-24T01:01:08.106Z,5.40
2022-09-24T01:03:41.287Z,5.50
2022-09-24T01:06:11.707Z,5.60
2022-09-24T01:08:40.709Z,5.60
2022-09-24T01:11:27.717Z,5.50
2022-09-24T01:14:25.698Z,5.90
2022-09-24T01:17:10.783Z,5.60
2022-09-24T01:20:04.660Z,6.60
2022-09-24T01:23:13.062Z,7.10
2022-09-24T01:26:19.644Z,7.00
2022-09-24T01:28:56.831Z,7.50
2022-09-24T01:31:35.829Z,7.00
2022-09-24T01:34:06.303Z,8.10
2022-09-24T01:36:37.755Z,7.90
2022-09-24T01:39:19.022Z,7.70
2022-09-24T01:41:49.296Z,7.90
2022-09-24T01:44:19.084Z,7.40
2022-09-24T01:46:48.861Z,7.20
2022-09-24T01:49:17.376Z,7.10
2022-09-24T01:51:51.397Z,7.50
2022-09-24T01:54:29.495Z,7.80
2022-09-24T01:57:00.951Z,7.30
2022-09-24T01:59:36.708Z,7.70
2022-09-24T02:02:09.661Z,6.80
2022-09-24T02:04:46.377Z,8.10
2022-09-24T02:07:26.941Z,7.70
2022-09-24T02:09:59.623Z,8.10
2022-09-24T02:12:40.089Z,7.60
2022-09-24T02:15:18.805Z,7.50
2022-09-24T02:17:55.407Z,7.40
2022-09-24T02:20:27.140Z,7.40
2022-09-24T02:22:57.684Z,8.10
2022-09-24T02:25:33.394Z,7.90
2022-09-24T02:28:03.460Z,8.60
2022-09-24T02:30:43.811Z,9.10
2022-09-24T02:33:40.048Z,8.50
2022-09-24T02:36:09.860Z,8.30
2022-09-24T02:38:38.459Z,8.10
2022-09-24T02:41:10.927Z,8.40
2022-09-24T02:43:41.494Z,9.10
2022-09-24T02:46:16.213Z,8.50
2022-09-24T02:48:48.057Z,8.60
2022-09-24T02:51:16.955Z,9.10
2022-09-24T02:53:47.680Z,8.60
2022-09-24T02:56:16.167Z,8.40
2022-09-24T02:58:44.547Z,8.70
2022-09-24T03:01:12.929Z,8.40
2022-09-24T03:03:41.330Z,8.30
2022-09-24T03:06:11.032Z,9.50
2022-09-24T03:08:39.967Z,9.20
2022-09-24T03:11:12.969Z,8.90
2022-09-24T03:13:43.548Z,8.50
2022-09-24T03:16:11.983Z,8.20
2022-09-24T03:18:40.271Z,8.70
2022-09-24T03:21:11.559Z,9.20
2022-09-24T03:23:43.470Z,9.00
2022-09-24T03:26:16.205Z,9.30
2022-09-24T03:28:45.102Z,8.80
2022-09-24T03:31:14.173Z,9.40
2022-09-24T03:33:46.165Z,8.70
2022-09-24T03:36:23.248Z,9.50
2022-09-24T03:38:55.762Z,8.70
2022-09-24T03:41:28.489Z,8.50
2022-09-24T03:43:57.001Z,8.80
2022-09-24T03:46:30.484Z,9.00
2022-09-24T03:49:00.613Z,9.60
2022-09-24T03:51:28.817Z,9.00
2022-09-24T03:53:57.012Z,9.50
2022-09-24T03:56:25.464Z,9.30
2022-09-24T03:58:57.426Z,8.90
2022-09-24T04:01:25.702Z,9.20
2022-09-24T04:03:57.061Z,9.00
2022-09-24T04:06:33.851Z,8.70
2022-09-24T04:09:02.536Z,9.00
2022-09-24T04:11:31.109Z,9.70
2022-09-24T04:13:59.387Z,8.70
2022-09-24T04:16:27.904Z,8.60
2022-09-24T04:18:56.872Z,9.30
2022-09-24T04:21:25.014Z,8.50
2022-09-24T04:23:53.114Z,9.10
2022-09-24T04:26:21.123Z,9.30
2022-09-24T04:28:50.633Z,8.50
2022-09-24T04:31:20.060Z,8.70
2022-09-24T04:33:50.948Z,9.00
2022-09-24T04:36:19.434Z,8.60
2022-09-24T04:38:47.816Z,8.90
2022-09-24T04:41:16.659Z,10.00
2022-09-24T04:43:48.719Z,9.50
2022-09-24T04:46:19.407Z,10.10
2022-09-24T04:48:51.479Z,10.50
2022-09-24T04:51:21.624Z,10.10
2022-09-24T04:53:52.097Z,9.60
2022-09-24T04:56:23.278Z,10.40
2022-09-24T04:58:52.075Z,9.40
2022-09-24T05:01:20.582Z,10.20
2022-09-24T05:03:51.491Z,9.50
2022-09-24T05:06:19.810Z,9.40
2022-09-24T05:08:54.430Z,9.10
2022-09-24T05:11:33.234Z,9.30
2022-09-24T05:14:04.681Z,9.90
2022-09-24T05:16:33.047Z,9.00
2022-09-24T05:19:05.263Z,9.10
2022-09-24T05:21:34.022Z,9.00
2022-09-24T05:24:08.142Z,9.10
2022-09-24T05:26:55.237Z,9.00
2022-09-24T05:29:23.755Z,9.50
2022-09-24T05:31:53.361Z,9.10
2022-09-24T05:34:22.162Z,8.60
2022-09-24T05:36:54.872Z,8.70
2022-09-24T05:39:27.957Z,8.80
2022-09-24T05:42:00.749Z,8.80
2022-09-24T05:44:31.352Z,9.10
2022-09-24T05:47:03.032Z,9.20
2022-09-24T05:49:32.491Z,8.70
2022-09-24T05:52:05.532Z,9.30
2022-09-24T05:54:34.732Z,8.80
2022-09-24T05:57:03.393Z,8.30
2022-09-24T05:59:32.840Z,9.00
2022-09-24T06:02:04.323Z,8.90
2022-09-24T06:04:35.086Z,8.70
2022-09-24T06:07:04.299Z,8.70
2022-09-24T06:09:35.542Z,8.90
2022-09-24T06:12:10.074Z,8.80
2022-09-24T06:14:45.625Z,9.30
2022-09-24T06:17:14.931Z,8.10
2022-09-24T06:19:48.582Z,8.10
2022-09-24T06:22:17.631Z,8.60
2022-09-24T06:24:46.582Z,8.40
2022-09-24T06:27:15.615Z,9.50
2022-09-24T06:29:45.232Z,8.40
2022-09-24T06:32:13.814Z,8.10
2022-09-24T06:34:42.148Z,8.50
2022-09-24T06:37:12.753Z,8.40
2022-09-24T06:39:41.109Z,8.10
2022-09-24T06:42:09.386Z,8.10
2022-09-24T06:44:37.985Z,8.10
2022-09-24T06:47:06.803Z,8.30
2022-09-24T06:49:35.895Z,7.80
2022-09-24T06:52:08.186Z,7.90
2022-09-24T06:54:48.415Z,7.40
2022-09-24T06:57:17.386Z,8.50
2022-09-24T06:59:46.087Z,7.90
2022-09-24T07:02:14.843Z,7.30
2022-09-24T07:04:44.105Z,6.80
2022-09-24T07:07:33.962Z,7.10
2022-09-24T07:10:09.635Z,6.60
2022-09-24T07:12:41.483Z,6.20
2022-09-24T07:15:12.733Z,6.40
2022-09-24T07:17:41.631Z,6.90
2022-09-24T07:20:15.573Z,6.70
2022-09-24T07:22:47.623Z,6.20
2022-09-24T07:25:21.141Z,6.70
2022-09-24T07:27:55.125Z,5.70
2022-09-24T07:30:26.209Z,6.40
2022-09-24T07:33:01.214Z,6.40
2022-09-24T07:35:30.609Z,5.90
2022-09-24T07:38:01.964Z,5.80
2022-09-24T07:40:32.976Z,6.00
2022-09-24T07:43:07.952Z,6.00
2022-09-24T07:45:36.941Z,5.60
2022-09-24T07:48:06.031Z,5.40
2022-09-24T07:50:39.333Z,5.80
2022-09-24T07:53:07.844Z,5.30
2022-09-24T07:55:41.476Z,5.60
2022-09-24T07:58:14.863Z,5.60
2022-09-24T08:00:43.812Z,5.40
2022-09-24T08:03:12.319Z,5.30
2022-09-24T08:05:48.053Z,4.90
2022-09-24T08:08:16.968Z,5.20
2022-09-24T08:10:46.045Z,5.10
2022-09-24T08:13:15.032Z,4.90
2022-09-24T08:15:44.090Z,4.60
2022-09-24T08:18:13.565Z,4.70
2022-09-24T08:20:42.302Z,4.10
2022-09-24T08:23:10.943Z,4.60
2022-09-24T08:25:39.611Z,4.20
2022-09-24T08:28:09.317Z,4.70
2022-09-24T08:30:37.514Z,4.50
2022-09-24T08:33:07.623Z,3.80
2022-09-24T08:35:37.034Z,3.70
2022-09-24T08:38:06.542Z,3.70
2022-09-24T08:41:14.441Z,4.00
2022-09-24T08:44:14.677Z,4.10
2022-09-24T08:47:08.995Z,3.70
2022-09-24T08:49:40.427Z,3.90
2022-09-24T08:52:34.742Z,3.10
2022-09-24T08:55:54.404Z,3.30
2022-09-24T08:58:46.112Z,3.30
2022-09-24T09:01:29.322Z,3.50
2022-09-24T09:04:05.420Z,3.80
2022-09-24T09:06:53.967Z,3.70
2022-09-24T09:09:26.978Z,3.40
2022-09-24T09:12:04.764Z,3.50
2022-09-24T09:14:42.457Z,3.30
2022-09-24T09:17:35.226Z,3.30
2022-09-24T09:20:12.024Z,3.40
2022-09-24T09:22:48.981Z,3.90
2022-09-24T09:25:23.966Z,3.30
2022-09-24T09:28:01.027Z,3.30
2022-09-24T09:30:43.867Z,3.20
2022-09-24T09:33:28.903Z,3.70
2022-09-24T09:36:16.162Z,3.50
2022-09-24T09:39:11.845Z,3.70
2022-09-24T09:41:51.650Z,3.50
2022-09-24T09:44:29.858Z,3.70
2022-09-24T09:47:12.595Z,3.00
2022-09-24T09:49:44.180Z,3.10
2022-09-24T09:52:21.603Z,3.00
2022-09-24T09:54:50.685Z,2.90
2022-09-24T09:57:22.338Z,3.20
2022-09-24T09:59:53.789Z,3.20
2022-09-24T10:02:31.706Z,3.00
2022-09-24T10:05:03.153Z,3.30
2022-09-24T10:07:32.453Z,2.70
2022-09-24T10:10:21.971Z,3.20
2022-09-24T10:13:13.248Z,3.20
2022-09-24T10:15:58.317Z,2.70
2022-09-24T10:18:53.778Z,2.60
2022-09-24T10:21:34.836Z,2.90
2022-09-24T10:24:07.374Z,3.50
2022-09-24T10:26:45.115Z,3.40
2022-09-24T10:29:46.253Z,3.00
2022-09-24T10:32:26.505Z,2.80
2022-09-24T10:35:19.977Z,3.50
2022-09-24T10:37:53.277Z,3.60
2022-09-24T10:40:31.316Z,3.70
2022-09-24T10:43:02.748Z,3.10
2022-09-24T10:45:49.741Z,2.60
2022-09-24T10:48:19.175Z,3.10
2022-09-24T10:51:15.001Z,3.40
2022-09-24T10:54:03.416Z,2.90
2022-09-24T10:56:47.284Z,3.40
2022-09-24T10:59:57.365Z,3.00
2022-09-24T11:02:38.666Z,3.10
2022-09-24T11:05:18.701Z,3.30
2022-09-24T11:07:52.697Z,3.10
2022-09-24T11:10:49.761Z,2.90
2022-09-24T11:13:42.098Z,3.10
2022-09-24T11:16:10.349Z,3.10
2022-09-24T11:19:08.219Z,3.10
2022-09-24T11:22:02.585Z,2.90
2022-09-24T11:24:44.338Z,3.20
2022-09-24T11:27:28.005Z,3.30
2022-09-24T11:30:15.881Z,3.10
2022-09-24T11:33:19.471Z,2.70
2022-09-24T11:36:05.019Z,2.80
2022-09-24T11:38:52.240Z,3.30
2022-09-24T11:41:37.963Z,2.90
2022-09-24T11:44:21.262Z,2.90
2022-09-24T11:47:04.960Z,2.70
2022-09-24T11:49:55.370Z,2.90
2022-09-24T11:52:36.711Z,3.00
2022-09-24T11:55:14.806Z,2.70
2022-09-24T11:58:21.177Z,2.90
2022-09-24T12:01:00.982Z,2.80
2022-09-24T12:03:46.577Z,2.60
2022-09-24T12:06:32.816Z,2.80
2022-09-24T12:09:23.687Z,2.70
2022-09-24T12:12:16.391Z,2.30
2022-09-24T12:14:55.983Z,2.70
2022-09-24T12:17:37.520Z,2.60
2022-09-24T12:20:23.808Z,2.60
2022-09-24T12:23:18.167Z,2.40
2022-09-24T12:25:50.239Z,2.50
2022-09-24T12:28:41.184Z,2.30
2022-09-24T12:31:55.479Z,2.80
2022-09-24T12:34:43.596Z,2.50
2022-09-24T12:37:21.229Z,2.40
2022-09-24T12:40:12.145Z,2.40
2022-09-24T12:43:02.217Z,2.60
2022-09-24T12:45:37.279Z,2.80
2022-09-24T12:48:15.232Z,2.40
2022-09-24T12:50:56.788Z,2.50
2022-09-24T12:53:35.370Z,2.50
2022-09-24T12:56:08.285Z,2.30
2022-09-24T12:58:44.957Z,2.70
2022-09-24T13:01:31.035Z,2.30
2022-09-24T13:04:15.722Z,2.60
2022-09-24T13:06:48.820Z,2.60
2022-09-24T13:09:37.771Z,2.60
2022-09-24T13:12:15.747Z,2.60
2022-09-24T13:14:53.194Z,2.40
2022-09-24T13:17:24.408Z,2.40
2022-09-24T13:20:08.134Z,2.60
2022-09-24T13:22:38.759Z,2.60
2022-09-24T13:25:12.193Z,2.60
2022-09-24T13:27:44.088Z,2.50
2022-09-24T13:30:23.691Z,2.50
2022-09-24T13:33:26.475Z,3.80
2022-09-24T13:35:58.739Z,5.90
2022-09-24T13:38:58.878Z,4.10
2022-09-24T13:41:41.989Z,2.50
2022-09-24T13:44:41.337Z,2.30
2022-09-24T13:47:39.153Z,2.30
2022-09-24T13:50:26.703Z,2.80
2022-09-24T13:53:14.598Z,2.80
2022-09-24T13:55:49.785Z,3.00
2022-09-24T13:58:35.413Z,2.70
2022-09-24T14:01:24.703Z,5.70
2022-09-24T14:03:59.191Z,4.40
2022-09-24T14:06:34.691Z,4.90
2022-09-24T14:09:15.143Z,4.00
2022-09-24T14:11:52.673Z,3.10
2022-09-24T14:14:25.426Z,3.20
2022-09-24T14:16:58.194Z,3.10
2022-09-24T14:19:26.854Z,3.40
2022-09-24T14:21:58.908Z,2.60
2022-09-24T14:24:45.921Z,2.70
2022-09-24T14:27:21.068Z,2.60
2022-09-24T14:29:52.839Z,2.70
2022-09-24T14:32:27.862Z,3.20
2022-09-24T14:35:04.538Z,2.70
2022-09-24T14:37:38.446Z,2.80
2022-09-24T14:40:17.252Z,2.90
2022-09-24T14:42:57.739Z,2.90
2022-09-24T14:45:38.671Z,2.40
2022-09-24T14:48:23.157Z,5.00
2022-09-24T14:50:53.096Z,5.20
2022-09-24T14:53:36.551Z,3.30
2022-09-24T14:56:27.029Z,4.00
2022-09-24T14:58:58.790Z,3.00
2022-09-24T15:01:34.338Z,4.30
2022-09-24T15:04:07.980Z,3.70
2022-09-24T15:06:37.869Z,3.40
2022-09-24T15:09:16.916Z,3.10
2022-09-24T15:11:46.959Z,3.50
2022-09-24T15:14:19.603Z,3.10
2022-09-24T15:16:48.806Z,2.40
2022-09-24T15:19:22.919Z,3.30
2022-09-24T15:21:54.343Z,2.70
2022-09-24T15:24:25.583Z,3.50
2022-09-24T15:27:19.784Z,3.50
2022-09-24T15:29:50.455Z,4.70
2022-09-24T15:32:22.807Z,4.20
2022-09-24T15:34:57.372Z,3.50
2022-09-24T15:37:28.797Z,3.30
2022-09-24T15:40:05.979Z,3.50
2022-09-24T15:42:34.676Z,2.90
2022-09-24T15:45:03.282Z,3.30
2022-09-24T15:47:32.074Z,4.00
2022-09-24T15:50:00.855Z,16.10
2022-09-24T15:52:33.708Z,7.80
2022-09-24T15:55:14.936Z,12.10
2022-09-24T15:57:43.510Z,11.80
2022-09-24T16:00:19.461Z,10.50
2022-09-24T16:02:58.671Z,9.20
2022-09-24T16:05:27.286Z,7.30
2022-09-24T16:07:55.675Z,8.60
2022-09-24T16:10:25.690Z,9.50
2022-09-24T16:12:54.900Z,5.60
2022-09-24T16:15:25.018Z,6.60
2022-09-24T16:17:54.422Z,5.80
2022-09-24T16:20:26.408Z,4.20
2022-09-24T16:22:58.117Z,3.50
2022-09-24T16:25:28.306Z,3.50
2022-09-24T16:27:59.039Z,5.10
2022-09-24T16:30:27.605Z,3.60
2022-09-24T16:32:55.884Z,3.10
2022-09-24T16:35:24.740Z,3.00
2022-09-24T16:37:53.261Z,2.70
2022-09-24T16:40:22.345Z,3.20
2022-09-24T16:42:53.255Z,3.30
2022-09-24T16:45:22.698Z,3.90
2022-09-24T16:47:53.176Z,4.30
2022-09-24T16:50:24.894Z,5.30
2022-09-24T16:52:56.149Z,5.10
2022-09-24T16:55:26.900Z,4.40
2022-09-24T16:57:55.895Z,3.80
2022-09-24T17:00:24.251Z,4.90
2022-09-24T17:02:52.683Z,5.50
2022-09-24T17:05:21.127Z,4.20
2022-09-24T17:07:50.231Z,5.40
2022-09-24T17:10:18.909Z,5.80
2022-09-24T17:12:50.046Z,6.00
2022-09-24T17:15:21.429Z,6.90
2022-09-24T17:17:50.945Z,6.80
2022-09-24T17:20:20.028Z,6.30
2022-09-24T17:22:50.047Z,5.70
2022-09-24T17:25:18.527Z,5.70
2022-09-24T17:27:47.211Z,4.90
2022-09-24T17:30:16.310Z,5.30
2022-09-24T17:32:48.498Z,5.90
2022-09-24T17:35:19.238Z,5.30
2022-09-24T17:37:49.804Z,5.70
2022-09-24T17:40:23.911Z,5.50
2022-09-24T17:42:53.387Z,5.70
2022-09-24T17:45:25.948Z,5.60
2022-09-24T17:47:57.531Z,5.30
2022-09-24T17:50:29.722Z,5.50
2022-09-24T17:53:01.519Z,5.90
2022-09-24T17:55:31.292Z,9.60
2022-09-24T17:58:00.794Z,11.90
2022-09-24T18:00:31.822Z,10.30
2022-09-24T18:03:02.386Z,9.00
2022-09-24T18:05:31.346Z,11.00
2022-09-24T18:08:00.142Z,11.00
2022-09-24T18:10:28.822Z,13.80
2022-09-24T18:12:58.549Z,11.80
2022-09-24T18:15:29.559Z,11.20
2022-09-24T18:17:58.781Z,10.90
2022-09-24T18:20:33.334Z,10.70
2022-09-24T18:23:05.760Z,9.10
2022-09-24T18:25:37.031Z,8.80
2022-09-24T18:28:08.021Z,8.60
2022-09-24T18:30:38.011Z,7.90
2022-09-24T18:33:14.627Z,7.60
2022-09-24T18:35:55.221Z,7.70
2022-09-24T18:38:34.063Z,7.60
2022-09-24T18:41:17.827Z,6.70
2022-09-24T18:43:51.950Z,6.90
2022-09-24T18:46:26.704Z,6.60
2022-09-24T18:49:04.388Z,5.90
2022-09-24T18:51:37.818Z,6.10
2022-09-24T18:54:16.957Z,5.60
2022-09-24T18:56:48.278Z,6.60
2022-09-24T18:59:21.930Z,6.70
2022-09-24T19:01:57.736Z,6.60
2022-09-24T19:04:33.726Z,7.10
2022-09-24T19:07:04.898Z,7.60
2022-09-24T19:09:33.699Z,8.20
2022-09-24T19:12:08.457Z,8.30
2022-09-24T19:14:41.325Z,7.90
2022-09-24T19:17:14.053Z,7.40
2022-09-24T19:19:51.563Z,7.90
2022-09-24T19:22:22.241Z,9.00
2022-09-24T19:24:51.844Z,9.20
2022-09-24T19:27:25.483Z,9.90
2022-09-24T19:29:54.232Z,11.20
2022-09-24T19:32:25.599Z,10.60
2022-09-24T19:34:54.296Z,10.50
2022-09-24T19:37:23.492Z,12.90
2022-09-24T19:39:53.931Z,12.40
2022-09-24T19:42:23.645Z,12.20
2022-09-24T19:44:57.226Z,11.20
2022-09-24T19:47:28.484Z,10.00
2022-09-24T19:50:00.556Z,9.10
2022-09-24T19:52:29.271Z,9.20
2022-09-24T19:54:59.980Z,8.70
2022-09-24T19:57:36.713Z,9.00
2022-09-24T20:00:09.980Z,9.50
2022-09-24T20:02:39.464Z,10.30
2022-09-24T20:05:08.893Z,9.10
2022-09-24T20:07:45.350Z,9.20
2022-09-24T20:10:18.205Z,9.50
2022-09-24T20:12:53.130Z,10.20
2022-09-24T20:15:22.996Z,10.70
2022-09-24T20:17:55.041Z,9.30
2022-09-24T20:20:35.033Z,9.20
2022-09-24T20:23:08.832Z,8.70
2022-09-24T20:25:58.310Z,9.20
2022-09-24T20:28:33.835Z,8.80
2022-09-24T20:31:11.259Z,8.90
2022-09-24T20:33:44.088Z,9.30
2022-09-24T20:36:23.861Z,10.60
2022-09-24T20:38:58.996Z,12.60
2022-09-24T20:41:29.341Z,11.90
2022-09-24T20:43:59.155Z,13.50
2022-09-24T20:46:28.855Z,16.80
2022-09-24T20:49:00.530Z,18.90
2022-09-24T20:51:34.118Z,14.60
2022-09-24T20:54:03.305Z,14.60
2022-09-24T20:56:33.044Z,12.60
2022-09-24T20:59:03.035Z,17.50
2022-09-24T21:01:33.360Z,16.80
2022-09-24T21:04:03.310Z,15.50
2022-09-24T21:06:32.081Z,13.00
2022-09-24T21:09:00.361Z,13.60
2022-09-24T21:11:28.650Z,13.00
2022-09-24T21:14:03.006Z,13.60
2022-09-24T21:16:34.325Z,12.60
2022-09-24T21:19:08.189Z,12.90
2022-09-24T21:21:39.195Z,12.50
2022-09-24T21:24:11.893Z,12.40
2022-09-24T21:26:43.124Z,13.20
2022-09-24T21:29:16.709Z,14.20
2022-09-24T21:31:47.342Z,14.50
2022-09-24T21:34:20.968Z,14.10
2022-09-24T21:36:49.561Z,13.00
2022-09-24T21:39:29.069Z,11.40
2022-09-24T21:42:00.653Z,11.40
2022-09-24T21:44:34.314Z,11.90
2022-09-24T21:47:02.834Z,13.70
2022-09-24T21:49:33.766Z,13.40
2022-09-24T21:52:06.082Z,13.00
2022-09-24T21:54:36.697Z,13.80
2022-09-24T21:57:05.057Z,13.50
2022-09-24T21:59:51.967Z,14.40
2022-09-24T22:02:21.729Z,13.70
2022-09-24T22:04:50.581Z,13.90
2022-09-24T22:07:19.468Z,14.80
2022-09-24T22:09:50.525Z,14.40
2022-09-24T22:12:18.903Z,14.80
2022-09-24T22:14:47.180Z,13.30
2022-09-24T22:17:16.269Z,14.10
2022-09-24T22:19:44.563Z,13.20
2022-09-24T22:22:18.158Z,12.60
2022-09-24T22:24:47.063Z,13.20
2022-09-24T22:27:15.326Z,12.00
2022-09-24T22:29:43.594Z,12.10
2022-09-24T22:32:11.784Z,12.10
2022-09-24T22:34:58.504Z,11.40
2022-09-24T22:37:27.291Z,11.10
2022-09-24T22:39:56.400Z,10.90
2022-09-24T22:42:24.574Z,11.80
2022-09-24T22:44:53.058Z,12.40
2022-09-24T22:47:21.544Z,11.90
2022-09-24T22:49:50.023Z,13.60
2022-09-24T22:52:20.361Z,13.40
2022-09-24T22:54:48.629Z,13.90
2022-09-24T22:57:32.495Z,12.30
2022-09-24T23:00:07.714Z,13.40
2022-09-24T23:02:35.889Z,13.20
2022-09-24T23:05:04.692Z,12.20
2022-09-24T23:07:33.473Z,12.60
2022-09-24T23:10:01.769Z,12.90
2022-09-24T23:12:34.442Z,12.60
2022-09-24T23:15:02.720Z,13.00
2022-09-24T23:17:31.308Z,13.60
2022-09-24T23:20:00.206Z,12.20
2022-09-24T23:22:32.461Z,12.30
2022-09-24T23:25:03.925Z,12.40
2022-09-24T23:27:32.590Z,12.30
2022-09-24T23:30:01.612Z,12.60
2022-09-24T23:32:30.084Z,12.20
2022-09-24T23:34:59.432Z,13.60
2022-09-24T23:37:29.517Z,12.80
2022-09-24T23:40:01.683Z,13.00
2022-09-24T23:42:30.376Z,13.60
2022-09-24T23:45:01.629Z,14.50
2022-09-24T23:47:33.895Z,14.20
2022-09-24T23:50:04.627Z,14.30
2022-09-24T23:52:35.271Z,14.00
2022-09-24T23:55:03.525Z,12.70
2022-09-24T23:57:31.510Z,11.90
